Baileyville, IL (61007)

10:44 PM CST on March 01, 2015 (GMT -0600)
KILFREEP4 | Change Station
CLOSE
Current Station
Personal Weather Station
Location: Freeport, IL
Elevation: 792 ft
Nearby Weather Stations

Elev 792 ft 42.26 °N, 89.62 °W | Updated 60 seconds ago

Clear
Clear
13.8 °F
Feels Like 4 °F
N
7.0
Wind Variable Wind from SW
Gusts 10.0 mph

Today
High -- | Low -- °F
--% Chance of Precip.
Yesterday
High -- | Low -- °F
Precip. -- in
6:33 AM 5:48 PM
Waxing Gibbous, 89% visible
Pressure 30.37 in
Visibility 10.0 miles
Clouds Clear
Windchill 4 °F
Dew Point 9 °F
Humidity 80%
Rainfall 0.00 in
Snow Depth Not available.
UV 0 out of 12
Pollen .50 out of 12
Air Quality Not available.
Flu Activity Not available.
METAR KFEP 020435Z AUTO 25006KT 10SM CLR M09/M13 A3037 RMK AO2 T10921135

More Conditions Fewer Conditions

Pressure 30.37 in
Visibility 10.0 miles
Clouds Clear
Windchill 4 °F
Dew Point 9 °F
Humidity 80%
Rainfall 0.00 in
Snow Depth Not available.
UV 0 out of 12
Pollen .50 out of 12
Air Quality Not available.
Flu Activity Not available.
METAR KFEP 020435Z AUTO 25006KT 10SM CLR M09/M13 A3037 RMK AO2 T10921135

More Conditions Fewer Conditions

10-Day Weather Forecast

Almanac

Astronomy

Mar. 01, 2015 Rise Set
Actual Time
Civil Twilight
Nautical Twilight
Astronomical Twilight
Moon
Length of Visible Light
Length of Day
Tomorrow will be .
, % of the Moon is Illuminated

Today's Extremes

State Highs State Lows

Community

WunderPhotos

Upload Photos

1,801,725 photos uploaded!

WunderBlogs® & News

Nearby

Air Quality

  Air Quality AQ Index Pollutant
Not available.

Snow Depth

Station Depth Elevation

Earthquake Activity

City Distance Mag. Time & Date
Minimum magnitude displayed is 2.5.

Coastal Water Temperatures

Place Temperature

Nearby Weather Stations